Time;durP1;ratioP1;P1;durP2;ratioP2;P2;SDS_P1;SDS_P2;PMS_P1;PMS_P2;Temp;Humidity;BMP_temperature;BMP_pressure;BME280_temperature;BME280_humidity;BME280_pressure;Samples;Min_cycle;Max_cycle;Signal;HPM_P1;HPM_P2
2023/04/22 00:00:07;;;;;;;24.70;12.30;;;;;;;;;;106799;1278;22533;-81
2023/04/22 00:03:12;;;;;;;26.50;13.40;;;;;;;;;;106815;1278;22770;-78
2023/04/22 00:06:03;;;;;;;23.60;12.10;;;;;;;;;;107291;1259;24164;-77
2023/04/22 00:08:44;;;;;;;;;;;;;;;;;;;;;
2023/04/22 00:11:46;;;;;;;21.30;11.30;;;;;;;;;;106836;1278;22524;-84
2023/04/22 00:14:16;;;;;;;22.90;10.90;;;;;;;;;;106795;1257;25322;-80
2023/04/22 00:17:15;;;;;;;;;;;;;;;;;;;;;
2023/04/22 00:19:47;;;;;;;20.60;11.10;;;;;;;;;;106810;1278;24342;-77
2023/04/22 00:22:27;;;;;;;21.50;10.60;;;;;;;;;;106847;1259;22522;-84
2023/04/22 00:24:57;;;;;;;22.50;11.20;;;;;;;;;;106842;1277;22489;-80
2023/04/22 00:28:04;;;;;;;20.50;10.00;;;;;;;;;;106870;1277;22528;-79
2023/04/22 00:31:01;;;;;;;;;;;;;;;;;;;;;
2023/04/22 00:33:48;;;;;;;19.10;10.00;;;;;;;;;;106820;1277;22523;-82
2023/04/22 00:37:17;;;;;;;17.70;10.40;;;;;;;;;;106778;1261;22770;-81
2023/04/22 00:40:23;;;;;;;20.50;11.30;;;;;;;;;;106806;1278;25471;-76
2023/04/22 00:43:10;;;;;;;21.90;11.30;;;;;;;;;;106804;1278;24056;-81
2023/04/22 00:46:12;;;;;;;;;;;;;;;;;;;;;
2023/04/22 00:49:09;;;;;;;21.00;12.60;;;;;;;;;;107674;1277;25332;-80
2023/04/22 00:51:56;;;;;;;20.40;11.50;;;;;;;;;;106808;1277;24364;-80
2023/04/22 00:54:37;;;;;;;21.10;11.50;;;;;;;;;;102848;1277;22705;-76
2023/04/22 00:57:55;;;;;;;22.00;11.10;;;;;;;;;;106796;1259;24260;-84
2023/04/22 01:00:45;;;;;;;22.70;11.50;;;;;;;;;;106858;1278;25294;-81
2023/04/22 01:03:39;;;;;;;20.00;11.30;;;;;;;;;;106815;1278;25445;-78
2023/04/22 01:06:22;;;;;;;26.20;13.30;;;;;;;;;;106795;1277;22997;-79
2023/04/22 01:08:58;;;;;;;25.50;12.80;;;;;;;;;;106862;1277;23118;-78
2023/04/22 01:11:43;;;;;;;;;;;;;;;;;;;;;
2023/04/22 01:14:46;;;;;;;;;;;;;;;;;;;;;
2023/04/22 01:17:35;;;;;;;23.00;11.80;;;;;;;;;;106804;1259;22611;-80
2023/04/22 01:20:34;;;;;;;22.00;11.90;;;;;;;;;;106779;1278;25333;-79
2023/04/22 01:23:10;;;;;;;23.80;13.00;;;;;;;;;;106860;1278;25351;-80
2023/04/22 01:26:00;;;;;;;;;;;;;;;;;;;;;
2023/04/22 01:29:22;;;;;;;24.60;11.90;;;;;;;;;;106828;1277;25350;-81
2023/04/22 01:31:48;;;;;;;22.00;12.50;;;;;;;;;;107597;1277;22529;-76
2023/04/22 01:34:21;;;;;;;22.90;12.80;;;;;;;;;;107104;1276;22616;-81
2023/04/22 01:36:49;;;;;;;23.20;11.90;;;;;;;;;;106797;1256;25403;-82
2023/04/22 01:39:45;;;;;;;27.80;15.40;;;;;;;;;;106807;1278;22748;-80
2023/04/22 01:42:21;;;;;;;30.10;15.20;;;;;;;;;;106814;1275;22524;-78
2023/04/22 01:45:18;;;;;;;;;;;;;;;;;;;;;
2023/04/22 01:48:13;;;;;;;;;;;;;;;;;;;;;
2023/04/22 01:51:19;;;;;;;23.50;12.90;;;;;;;;;;106841;1277;22529;-76
2023/04/22 01:54:04;;;;;;;23.00;11.50;;;;;;;;;;106754;1277;22605;-77
2023/04/22 01:56:54;;;;;;;22.50;11.40;;;;;;;;;;106829;1277;24199;-82
2023/04/22 01:59:48;;;;;;;;;;;;;;;;;;;;;
2023/04/22 02:02:54;;;;;;;22.60;10.60;;;;;;;;;;106794;1278;24255;-78
2023/04/22 02:06:12;;;;;;;21.60;11.40;;;;;;;;;;106896;1278;25424;-82
2023/04/22 02:08:51;;;;;;;22.70;11.00;;;;;;;;;;106715;1258;24225;-78
2023/04/22 02:11:59;;;;;;;;;;;;;;;;;;;;;
2023/04/22 02:14:48;;;;;;;21.20;12.20;;;;;;;;;;107148;1277;23809;-75
2023/04/22 02:17:26;;;;;;;19.70;11.10;;;;;;;;;;107045;1277;25248;-77
2023/04/22 02:20:16;;;;;;;19.90;10.80;;;;;;;;;;106786;1260;22483;-83
2023/04/22 02:23:26;;;;;;;21.70;11.10;;;;;;;;;;106794;1278;22639;-78
2023/04/22 02:26:13;;;;;;;22.80;11.00;;;;;;;;;;106814;1278;23147;-78
2023/04/22 02:29:15;;;;;;;20.50;11.00;;;;;;;;;;106767;1270;22546;-79
2023/04/22 02:31:40;;;;;;;27.70;14.90;;;;;;;;;;110414;1277;23301;-88
2023/04/22 02:34:06;;;;;;;38.00;18.40;;;;;;;;;;110352;1277;22079;-77
2023/04/22 02:36:55;;;;;;;34.20;17.80;;;;;;;;;;110332;1277;21989;-77
2023/04/22 02:39:20;;;;;;;38.80;19.40;;;;;;;;;;110246;1258;22864;-77
2023/04/22 02:41:47;;;;;;;32.80;18.00;;;;;;;;;;110204;1260;22227;-77
2023/04/22 02:44:22;;;;;;;37.10;18.40;;;;;;;;;;110346;1278;22164;-77
2023/04/22 02:46:52;;;;;;;37.60;18.40;;;;;;;;;;110358;1278;22146;-77
2023/04/22 02:49:19;;;;;;;31.30;17.10;;;;;;;;;;110574;1254;22189;-77
2023/04/22 02:51:46;;;;;;;36.00;18.00;;;;;;;;;;110435;1277;23244;-77
2023/04/22 02:54:12;;;;;;;34.80;18.00;;;;;;;;;;110346;1277;22931;-77
2023/04/22 02:56:39;;;;;;;33.70;16.80;;;;;;;;;;110274;1277;22984;-77
2023/04/22 02:59:06;;;;;;;32.70;17.30;;;;;;;;;;110420;1260;22916;-77
2023/04/22 03:01:33;;;;;;;27.50;16.80;;;;;;;;;;110200;1278;22255;-77
2023/04/22 03:04:02;;;;;;;34.70;16.30;;;;;;;;;;110204;1278;23249;-77
2023/04/22 03:06:29;;;;;;;27.20;15.40;;;;;;;;;;110343;1278;22176;-77
2023/04/22 03:08:56;;;;;;;26.10;15.00;;;;;;;;;;110201;1256;22147;-77
2023/04/22 03:11:23;;;;;;;24.50;13.00;;;;;;;;;;110343;1277;22095;-77
2023/04/22 03:13:50;;;;;;;23.60;11.90;;;;;;;;;;110443;1277;23078;-77
2023/04/22 03:16:17;;;;;;;22.40;12.00;;;;;;;;;;110351;1277;22108;-77
2023/04/22 03:19:00;;;;;;;26.20;13.60;;;;;;;;;;110301;1255;22394;-77
2023/04/22 03:21:27;;;;;;;30.60;14.00;;;;;;;;;;110119;1278;22966;-78
2023/04/22 03:23:54;;;;;;;24.60;12.90;;;;;;;;;;110336;1278;22054;-77
2023/04/22 03:30:18;;;;;;;25.40;12.30;;;;;;;;;;110045;1260;22313;-77
2023/04/22 03:32:46;;;;;;;21.70;11.70;;;;;;;;;;110009;1282;22423;-77
2023/04/22 03:35:19;;;;;;;22.20;12.80;;;;;;;;;;109991;1282;22716;-77
2023/04/22 03:37:47;;;;;;;21.70;13.10;;;;;;;;;;110045;1282;22228;-77
2023/04/22 03:40:27;;;;;;;24.10;13.30;;;;;;;;;;109946;1267;23111;-77
2023/04/22 03:43:03;;;;;;;23.40;12.20;;;;;;;;;;109988;1283;22984;-78
2023/04/22 03:45:30;;;;;;;24.50;12.80;;;;;;;;;;109979;1283;22181;-77
2023/04/22 03:48:15;;;;;;;22.50;11.80;;;;;;;;;;109915;1283;22180;-77
2023/04/22 03:50:46;;;;;;;29.70;16.30;;;;;;;;;;110031;1264;22157;-77
2023/04/22 03:53:13;;;;;;;27.70;15.30;;;;;;;;;;110007;1282;22132;-77
2023/04/22 03:55:40;;;;;;;28.30;16.00;;;;;;;;;;110032;1282;22896;-82
2023/04/22 03:58:07;;;;;;;28.20;15.90;;;;;;;;;;109945;1282;22807;-77
2023/04/22 04:00:43;;;;;;;28.30;16.50;;;;;;;;;;110063;1259;22126;-76
2023/04/22 04:03:11;;;;;;;31.40;16.80;;;;;;;;;;110117;1279;22737;-77
2023/04/22 04:05:39;;;;;;;25.50;14.80;;;;;;;;;;110278;1279;22187;-77
2023/04/22 04:08:16;;;;;;;28.70;15.60;;;;;;;;;;110277;1279;22124;-78
2023/04/22 04:10:45;;;;;;;25.50;13.60;;;;;;;;;;110530;1259;22139;-77
2023/04/22 04:13:15;;;;;;;28.20;14.60;;;;;;;;;;110263;1278;23080;-77
2023/04/22 04:16:05;;;;;;;28.50;14.70;;;;;;;;;;110322;1278;22106;-77
2023/04/22 04:18:36;;;;;;;27.60;14.80;;;;;;;;;;110390;1278;22097;-78
2023/04/22 04:21:03;;;;;;;29.90;16.10;;;;;;;;;;110276;1261;22154;-77
2023/04/22 04:23:35;;;;;;;28.60;15.70;;;;;;;;;;110141;1279;22147;-77
2023/04/22 04:26:13;;;;;;;28.10;14.70;;;;;;;;;;110175;1279;22138;-77
2023/04/22 04:28:42;;;;;;;26.20;12.90;;;;;;;;;;110106;1279;22110;-78
2023/04/22 04:31:09;;;;;;;23.50;13.00;;;;;;;;;;110350;1260;22196;-78
2023/04/22 04:33:36;;;;;;;23.80;12.00;;;;;;;;;;110209;1278;22135;-78
2023/04/22 04:36:07;;;;;;;19.70;10.50;;;;;;;;;;110119;1279;22794;-77
2023/04/22 04:42:36;;;;;;;24.80;12.70;;;;;;;;;;110498;1258;22115;-77
2023/04/22 04:45:05;;;;;;;27.50;14.20;;;;;;;;;;110157;1280;22790;-77
2023/04/22 04:47:34;;;;;;;26.20;14.70;;;;;;;;;;110139;1279;22904;-78
2023/04/22 04:54:03;;;;;;;31.60;16.00;;;;;;;;;;110396;1259;22139;-78
2023/04/22 04:56:43;;;;;;;29.40;16.30;;;;;;;;;;110183;1278;21903;-77
2023/04/22 04:59:10;;;;;;;29.30;16.20;;;;;;;;;;110200;1278;22147;-77
2023/04/22 05:01:41;;;;;;;29.00;15.80;;;;;;;;;;110226;1278;22281;-80
2023/04/22 05:04:09;;;;;;;28.60;16.50;;;;;;;;;;110285;1260;22138;-77
2023/04/22 05:06:38;;;;;;;27.60;15.40;;;;;;;;;;110166;1280;22083;-77
2023/04/22 05:09:07;;;;;;;27.20;15.80;;;;;;;;;;110156;1275;22107;-77
2023/04/22 05:11:34;;;;;;;24.00;14.90;;;;;;;;;;110193;1280;22763;-78
2023/04/22 05:14:02;;;;;;;27.30;14.70;;;;;;;;;;110229;1260;22200;-77
2023/04/22 05:16:33;;;;;;;28.10;14.30;;;;;;;;;;110239;1278;22752;-77
2023/04/22 05:19:29;;;;;;;29.40;14.70;;;;;;;;;;110127;1278;22189;-77
2023/04/22 05:21:56;;;;;;;26.10;13.70;;;;;;;;;;110195;1278;22128;-77
2023/04/22 05:24:23;;;;;;;26.20;13.70;;;;;;;;;;110071;1260;22126;-77
2023/04/22 05:26:51;;;;;;;24.80;13.80;;;;;;;;;;110075;1280;22104;-78
2023/04/22 05:29:20;;;;;;;22.20;13.00;;;;;;;;;;110073;1279;22125;-78
2023/04/22 05:31:47;;;;;;;23.00;13.60;;;;;;;;;;110185;1280;22133;-78
2023/04/22 05:34:21;;;;;;;25.50;13.40;;;;;;;;;;110362;1260;22109;-78
2023/04/22 05:36:51;;;;;;;23.60;14.20;;;;;;;;;;110161;1279;22162;-78
2023/04/22 05:39:27;;;;;;;25.90;13.30;;;;;;;;;;110160;1279;22868;-78
2023/04/22 05:41:55;;;;;;;23.70;13.20;;;;;;;;;;110124;1279;22089;-78
2023/04/22 05:44:23;;;;;;;26.30;13.10;;;;;;;;;;110453;1258;22031;-78
2023/04/22 05:46:49;;;;;;;20.20;10.80;;;;;;;;;;110037;1280;22403;-78
2023/04/22 05:49:16;;;;;;;17.50;8.10;;;;;;;;;;110053;1280;22172;-78
2023/04/22 05:52:18;;;;;;;14.60;7.90;;;;;;;;;;109982;1284;22157;-78
2023/04/22 05:55:00;;;;;;;15.40;7.50;;;;;;;;;;110457;1262;22138;-78
2023/04/22 05:57:27;;;;;;;15.80;8.30;;;;;;;;;;110289;1279;22116;-78
2023/04/22 05:59:54;;;;;;;15.40;9.10;;;;;;;;;;110166;1279;22153;-78
2023/04/22 06:02:22;;;;;;;18.10;9.80;;;;;;;;;;110175;1279;22856;-78
2023/04/22 06:04:49;;;;;;;23.90;12.50;;;;;;;;;;110208;1263;22845;-78
2023/04/22 06:07:15;;;;;;;30.30;15.90;;;;;;;;;;110125;1280;22212;-78
2023/04/22 06:09:42;;;;;;;25.00;12.40;;;;;;;;;;110076;1280;22381;-79
2023/04/22 06:12:09;;;;;;;18.90;9.70;;;;;;;;;;110188;1280;22322;-79
2023/04/22 06:14:37;;;;;;;16.50;8.40;;;;;;;;;;110156;1260;22548;-76
2023/04/22 06:17:08;;;;;;;14.20;8.00;;;;;;;;;;110156;1279;22280;-78
2023/04/22 06:19:35;;;;;;;16.30;8.10;;;;;;;;;;110162;1279;22101;-78
2023/04/22 06:22:02;;;;;;;18.40;6.80;;;;;;;;;;110165;1279;22118;-77
2023/04/22 06:24:29;;;;;;;19.70;7.20;;;;;;;;;;110223;1263;22235;-77
2023/04/22 06:26:56;;;;;;;16.20;6.90;;;;;;;;;;110160;1280;22086;-77
2023/04/22 06:29:23;;;;;;;16.70;7.40;;;;;;;;;;110083;1280;22080;-77
2023/04/22 06:31:53;;;;;;;15.30;6.60;;;;;;;;;;110081;1281;22136;-77
2023/04/22 06:34:20;;;;;;;15.00;6.50;;;;;;;;;;110054;1259;22198;-77
2023/04/22 06:36:47;;;;;;;17.30;6.80;;;;;;;;;;110102;1280;22080;-77
2023/04/22 06:39:15;;;;;;;15.20;7.00;;;;;;;;;;110043;1280;22767;-77
2023/04/22 06:42:02;;;;;;;14.80;6.30;;;;;;;;;;110143;1280;22119;-77
2023/04/22 06:44:54;;;;;;;18.30;7.00;;;;;;;;;;110052;1265;22117;-77
2023/04/22 06:47:40;;;;;;;11.90;6.30;;;;;;;;;;110051;1281;22131;-85
2023/04/22 06:50:14;;;;;;;13.30;6.50;;;;;;;;;;109992;1281;22163;-77
2023/04/22 06:52:48;;;;;;;15.40;6.90;;;;;;;;;;110014;1281;22868;-77
2023/04/22 06:55:15;;;;;;;16.50;7.30;;;;;;;;;;110244;1262;22045;-77
2023/04/22 06:57:42;;;;;;;15.80;8.00;;;;;;;;;;110105;1280;22478;-76
2023/04/22 07:00:09;;;;;;;14.30;8.00;;;;;;;;;;110077;1280;21946;-76
2023/04/22 07:02:37;;;;;;;15.20;8.30;;;;;;;;;;110069;1280;22378;-77
2023/04/22 07:05:05;;;;;;;14.90;7.60;;;;;;;;;;110111;1263;22265;-78
2023/04/22 07:07:32;;;;;;;15.30;7.70;;;;;;;;;;110075;1281;22107;-77
2023/04/22 07:09:59;;;;;;;15.80;7.70;;;;;;;;;;110066;1281;22110;-77
2023/04/22 07:12:30;;;;;;;15.20;8.10;;;;;;;;;;110051;1270;23015;-77
2023/04/22 07:14:57;;;;;;;16.00;7.90;;;;;;;;;;110064;1258;23137;-77
2023/04/22 07:17:24;;;;;;;15.30;7.50;;;;;;;;;;110084;1280;22133;-76
2023/04/22 07:19:52;;;;;;;13.80;7.40;;;;;;;;;;110191;1280;22192;-77
2023/04/22 07:22:19;;;;;;;13.50;8.00;;;;;;;;;;110101;1280;22095;-77
2023/04/22 07:24:46;;;;;;;14.60;7.70;;;;;;;;;;110125;1280;22323;-77
2023/04/22 07:27:13;;;;;;;15.00;8.30;;;;;;;;;;109975;1265;22104;-76
2023/04/22 07:29:40;;;;;;;14.60;8.00;;;;;;;;;;110068;1281;22812;-76
2023/04/22 07:32:07;;;;;;;17.70;8.60;;;;;;;;;;110057;1282;22226;-77
2023/04/22 07:34:35;;;;;;;16.20;9.00;;;;;;;;;;110070;1282;22140;-78
2023/04/22 07:37:03;;;;;;;19.20;10.30;;;;;;;;;;110273;1263;22270;-77
2023/04/22 07:39:30;;;;;;;16.50;9.00;;;;;;;;;;110043;1281;22133;-76
2023/04/22 07:41:58;;;;;;;16.40;9.40;;;;;;;;;;110058;1281;22221;-77
2023/04/22 07:44:26;;;;;;;16.90;8.90;;;;;;;;;;110070;1281;22164;-77
2023/04/22 07:46:54;;;;;;;16.40;9.20;;;;;;;;;;110210;1265;22223;-77
2023/04/22 07:49:21;;;;;;;14.70;9.00;;;;;;;;;;110055;1282;22123;-77
2023/04/22 07:51:50;;;;;;;15.70;8.20;;;;;;;;;;110071;1282;21868;-77
2023/04/22 07:54:18;;;;;;;14.90;7.30;;;;;;;;;;110040;1282;22155;-78
2023/04/22 07:56:46;;;;;;;12.60;7.50;;;;;;;;;;110250;1262;22884;-77
2023/04/22 07:59:14;;;;;;;12.40;6.50;;;;;;;;;;110039;1281;22098;-77
2023/04/22 08:01:44;;;;;;;11.30;6.60;;;;;;;;;;110102;1281;22768;-77
2023/04/22 08:04:12;;;;;;;16.00;6.20;;;;;;;;;;110061;1281;22151;-78
2023/04/22 08:06:39;;;;;;;9.50;4.80;;;;;;;;;;110113;1262;22144;-77
2023/04/22 08:09:07;;;;;;;9.70;5.40;;;;;;;;;;110036;1282;22054;-75
2023/04/22 08:11:34;;;;;;;10.80;5.80;;;;;;;;;;110046;1282;21983;-76
2023/04/22 08:14:02;;;;;;;11.30;5.40;;;;;;;;;;110046;1265;22601;-77
2023/04/22 08:16:31;;;;;;;13.00;5.80;;;;;;;;;;110051;1264;22334;-77
2023/04/22 08:18:58;;;;;;;9.80;5.20;;;;;;;;;;109991;1281;22103;-75
2023/04/22 08:21:27;;;;;;;12.50;5.00;;;;;;;;;;110083;1281;22085;-77
2023/04/22 08:23:54;;;;;;;10.40;5.20;;;;;;;;;;110092;1278;22149;-78
2023/04/22 08:26:22;;;;;;;9.40;4.90;;;;;;;;;;110076;1259;22873;-78
2023/04/22 08:28:50;;;;;;;12.00;6.10;;;;;;;;;;110080;1282;22341;-76
2023/04/22 08:31:26;;;;;;;8.90;4.80;;;;;;;;;;109978;1284;22947;-76
2023/04/22 08:33:55;;;;;;;11.40;4.20;;;;;;;;;;109996;1284;22014;-76
2023/04/22 08:36:25;;;;;;;8.30;4.30;;;;;;;;;;109942;1259;22873;-76
2023/04/22 08:38:54;;;;;;;10.10;5.30;;;;;;;;;;109983;1283;22815;-77
2023/04/22 08:41:25;;;;;;;8.30;4.50;;;;;;;;;;109996;1282;22202;-77
2023/04/22 08:43:55;;;;;;;10.40;4.80;;;;;;;;;;110007;1281;22126;-76
2023/04/22 08:46:27;;;;;;;10.90;5.00;;;;;;;;;;109983;1283;22433;-77
2023/04/22 08:48:57;;;;;;;8.40;4.10;;;;;;;;;;109967;1265;22110;-77
2023/04/22 08:51:27;;;;;;;10.40;4.60;;;;;;;;;;109969;1284;22075;-77
2023/04/22 08:53:56;;;;;;;10.20;3.90;;;;;;;;;;109976;1283;22177;-77
2023/04/22 08:56:25;;;;;;;9.30;4.00;;;;;;;;;;109979;1281;22149;-78
2023/04/22 08:58:55;;;;;;;10.30;3.90;;;;;;;;;;110323;1265;22817;-78
2023/04/22 09:01:24;;;;;;;10.40;4.80;;;;;;;;;;110063;1282;21991;-77
2023/04/22 09:03:54;;;;;;;13.70;4.70;;;;;;;;;;110048;1283;22215;-79
2023/04/22 09:06:23;;;;;;;10.20;4.50;;;;;;;;;;110049;1282;22148;-79
2023/04/22 09:08:53;;;;;;;9.30;4.50;;;;;;;;;;110144;1265;22113;-76
2023/04/22 09:11:23;;;;;;;10.90;4.80;;;;;;;;;;109951;1283;22192;-77
2023/04/22 09:13:52;;;;;;;10.00;4.40;;;;;;;;;;109977;1283;22107;-79
2023/04/22 09:16:21;;;;;;;10.10;4.80;;;;;;;;;;109954;1283;22831;-78
2023/04/22 09:18:50;;;;;;;9.00;4.20;;;;;;;;;;110239;1265;22164;-79
2023/04/22 09:21:20;;;;;;;8.90;4.20;;;;;;;;;;110010;1283;22958;-78
2023/04/22 09:23:49;;;;;;;11.10;4.50;;;;;;;;;;110002;1283;22879;-78
2023/04/22 09:26:20;;;;;;;11.80;4.00;;;;;;;;;;110003;1283;22004;-77
2023/04/22 09:28:59;;;;;;;13.50;4.80;;;;;;;;;;110209;1265;22128;-79
2023/04/22 09:38:29;;;;;;;9.40;4.20;;;;;;;;;;104251;1289;545365;-84
2023/04/22 09:40:56;;;;;;;11.00;4.80;;;;;;;;;;106408;1284;22752;-78
2023/04/22 09:43:23;;;;;;;9.30;4.10;;;;;;;;;;106304;1284;22623;-76
2023/04/22 09:45:50;;;;;;;20.30;11.50;;;;;;;;;;106339;1284;23918;-80
2023/04/22 09:48:17;;;;;;;12.00;5.20;;;;;;;;;;106357;1285;22532;-83
2023/04/22 09:50:45;;;;;;;8.50;3.60;;;;;;;;;;106470;1285;22657;-82
2023/04/22 09:53:16;;;;;;;11.20;3.50;;;;;;;;;;104275;1283;2699800;-82
2023/04/22 09:55:47;;;;;;;9.20;3.80;;;;;;;;;;106436;1283;25332;-79
2023/04/22 09:58:14;;;;;;;9.70;3.50;;;;;;;;;;106490;1263;25340;-81
2023/04/22 10:00:44;;;;;;;11.20;4.00;;;;;;;;;;106764;1282;23588;-79
2023/04/22 10:03:11;;;;;;;9.00;4.20;;;;;;;;;;106535;1282;25404;-80
2023/04/22 10:05:37;;;;;;;9.40;4.80;;;;;;;;;;106710;1282;22614;-79
2023/04/22 10:08:04;;;;;;;10.90;3.70;;;;;;;;;;106658;1260;22489;-81
2023/04/22 10:10:32;;;;;;;8.90;3.50;;;;;;;;;;106447;1283;22996;-78
2023/04/22 10:12:59;;;;;;;7.70;4.10;;;;;;;;;;106926;1283;26485;-77
2023/04/22 10:15:30;;;;;;;9.60;4.40;;;;;;;;;;106495;1283;22523;-82
2023/04/22 10:17:58;;;;;;;9.20;3.90;;;;;;;;;;106455;1261;24225;-83
2023/04/22 10:20:26;;;;;;;9.80;3.90;;;;;;;;;;106458;1282;24219;-79
2023/04/22 10:22:53;;;;;;;8.30;3.80;;;;;;;;;;106345;1282;23873;-82
2023/04/22 10:25:22;;;;;;;8.70;3.80;;;;;;;;;;106420;1282;22727;-84
2023/04/22 10:27:53;;;;;;;10.10;4.90;;;;;;;;;;106436;1282;25498;-78
2023/04/22 10:30:28;;;;;;;12.00;4.80;;;;;;;;;;106424;1264;22697;-84
2023/04/22 10:32:54;;;;;;;8.80;3.90;;;;;;;;;;106421;1284;22493;-85
2023/04/22 10:35:56;;;;;;;10.40;3.90;;;;;;;;;;106169;1284;22536;-81
2023/04/22 10:38:23;;;;;;;8.90;4.20;;;;;;;;;;105654;1269;22559;-80
2023/04/22 10:41:00;;;;;;;13.60;7.80;;;;;;;;;;105555;1292;23938;-78
2023/04/22 10:43:41;;;;;;;9.70;6.30;;;;;;;;;;105629;1292;24249;-77
2023/04/22 10:46:28;;;;;;;8.50;4.20;;;;;;;;;;105795;1291;25374;-79
2023/04/22 10:48:56;;;;;;;9.10;4.10;;;;;;;;;;105307;1278;22569;-76
2023/04/22 10:51:42;;;;;;;9.70;4.40;;;;;;;;;;105089;1298;22567;-81
2023/04/22 10:54:35;;;;;;;13.90;6.70;;;;;;;;;;105302;1298;22480;-77
2023/04/22 10:57:06;;;;;;;10.10;4.50;;;;;;;;;;104667;1305;22569;-79
2023/04/22 10:59:40;;;;;;;10.60;5.60;;;;;;;;;;105279;1293;24240;-78
2023/04/22 11:02:07;;;;;;;9.30;4.60;;;;;;;;;;105398;1294;22572;-80
2023/04/22 11:04:36;;;;;;;10.80;4.90;;;;;;;;;;105198;1298;22857;-79
2023/04/22 11:07:15;;;;;;;9.50;4.50;;;;;;;;;;105431;1298;24371;-82
2023/04/22 11:09:44;;;;;;;8.60;4.40;;;;;;;;;;105225;1280;23338;-76
2023/04/22 11:12:37;;;;;;;9.50;4.40;;;;;;;;;;108627;1298;22871;-78
2023/04/22 11:15:04;;;;;;;10.90;3.80;;;;;;;;;;109001;1291;22047;-78
2023/04/22 11:17:35;;;;;;;9.90;4.40;;;;;;;;;;109483;1291;22197;-77
2023/04/22 11:20:08;;;;;;;8.70;4.10;;;;;;;;;;109292;1271;22180;-77
2023/04/22 11:22:41;;;;;;;9.80;4.30;;;;;;;;;;109501;1287;22165;-77
2023/04/22 11:25:09;;;;;;;7.30;4.50;;;;;;;;;;109561;1291;21705;-76
2023/04/22 11:27:36;;;;;;;10.10;4.00;;;;;;;;;;109976;1283;22929;-77
2023/04/22 11:30:06;;;;;;;9.10;3.80;;;;;;;;;;109917;1268;22291;-75
2023/04/22 11:32:34;;;;;;;9.90;4.80;;;;;;;;;;109926;1279;22632;-78
2023/04/22 11:35:11;;;;;;;8.70;3.90;;;;;;;;;;110107;1278;22403;-77
2023/04/22 11:37:42;;;;;;;10.80;5.10;;;;;;;;;;110263;1278;22104;-76
2023/04/22 11:40:12;;;;;;;11.20;6.70;;;;;;;;;;110346;1259;22138;-76
2023/04/22 11:42:40;;;;;;;8.20;3.90;;;;;;;;;;110642;1276;22100;-76
2023/04/22 11:45:07;;;;;;;19.80;9.00;;;;;;;;;;110448;1276;22656;-76
2023/04/22 11:47:34;;;;;;;31.60;21.00;;;;;;;;;;110314;1276;22120;-77
2023/04/22 11:50:08;;;;;;;9.30;4.40;;;;;;;;;;110611;1254;22155;-77
2023/04/22 11:52:45;;;;;;;8.90;3.70;;;;;;;;;;110468;1277;22125;-77
2023/04/22 11:55:12;;;;;;;17.40;10.20;;;;;;;;;;110313;1277;22205;-77
2023/04/22 11:57:40;;;;;;;11.20;5.20;;;;;;;;;;110321;1276;22757;-77
2023/04/22 12:00:10;;;;;;;10.60;4.90;;;;;;;;;;110454;1254;22149;-76
2023/04/22 12:02:44;;;;;;;9.80;4.60;;;;;;;;;;110498;1275;22091;-78
2023/04/22 12:05:14;;;;;;;19.40;5.80;;;;;;;;;;110544;1275;22952;-77
2023/04/22 12:07:42;;;;;;;12.00;5.40;;;;;;;;;;110642;1275;22115;-87
2023/04/22 12:10:09;;;;;;;13.90;4.60;;;;;;;;;;110620;1253;24789;-76
2023/04/22 12:12:38;;;;;;;12.50;4.90;;;;;;;;;;110477;1275;22936;-77
2023/04/22 12:15:06;;;;;;;9.20;4.00;;;;;;;;;;110629;1264;22304;-77
2023/04/22 12:17:32;;;;;;;9.30;4.20;;;;;;;;;;110454;1275;22910;-77
2023/04/22 12:20:00;;;;;;;10.70;5.00;;;;;;;;;;110630;1275;22124;-76
2023/04/22 12:22:27;;;;;;;10.70;4.30;;;;;;;;;;111065;1256;22124;-77
2023/04/22 12:24:57;;;;;;;9.30;4.20;;;;;;;;;;110677;1275;22165;-77
2023/04/22 12:27:24;;;;;;;9.30;4.10;;;;;;;;;;110660;1274;22339;-76
2023/04/22 12:29:54;;;;;;;9.80;4.90;;;;;;;;;;110634;1274;22231;-76
2023/04/22 12:32:21;;;;;;;10.00;3.50;;;;;;;;;;110643;1257;22759;-76
2023/04/22 12:34:48;;;;;;;8.80;4.20;;;;;;;;;;110509;1276;22772;-76
2023/04/22 12:37:15;;;;;;;8.50;3.80;;;;;;;;;;110509;1276;22029;-76
2023/04/22 12:39:42;;;;;;;8.00;3.90;;;;;;;;;;110536;1276;22166;-78
2023/04/22 12:42:08;;;;;;;10.50;4.40;;;;;;;;;;111060;1251;22589;-77
2023/04/22 12:44:36;;;;;;;8.00;3.80;;;;;;;;;;110692;1274;22973;-80
2023/04/22 12:47:02;;;;;;;9.50;4.90;;;;;;;;;;110546;1274;22475;-76
2023/04/22 12:49:29;;;;;;;9.10;4.70;;;;;;;;;;110689;1274;22840;-76
2023/04/22 12:51:56;;;;;;;12.70;5.90;;;;;;;;;;110997;1256;22168;-77
2023/04/22 12:54:22;;;;;;;9.00;3.60;;;;;;;;;;110762;1273;23257;-76
2023/04/22 12:56:49;;;;;;;10.20;5.00;;;;;;;;;;110793;1273;22088;-77
2023/04/22 12:59:16;;;;;;;9.90;3.80;;;;;;;;;;110777;1273;22045;-77
2023/04/22 13:01:43;;;;;;;8.40;3.60;;;;;;;;;;110938;1253;22175;-77
2023/04/22 13:04:09;;;;;;;6.70;3.10;;;;;;;;;;111050;1272;22344;-77
2023/04/22 13:06:37;;;;;;;7.60;3.40;;;;;;;;;;111006;1272;22325;-76
2023/04/22 13:09:05;;;;;;;8.80;4.10;;;;;;;;;;110967;1272;22574;-76
2023/04/22 13:11:41;;;;;;;11.00;3.50;;;;;;;;;;110966;1249;22125;-77
2023/04/22 13:14:07;;;;;;;9.20;3.50;;;;;;;;;;110677;1273;22093;-76
2023/04/22 13:16:34;;;;;;;9.90;4.50;;;;;;;;;;110661;1272;22225;-77
2023/04/22 13:19:01;;;;;;;10.70;3.70;;;;;;;;;;110632;1272;22300;-75
2023/04/22 13:21:28;;;;;;;7.60;3.30;;;;;;;;;;110854;1253;23783;-75
2023/04/22 13:23:55;;;;;;;8.20;3.10;;;;;;;;;;111168;1257;22854;-77
2023/04/22 13:26:22;;;;;;;10.30;3.40;;;;;;;;;;110985;1272;22343;-79
2023/04/22 13:28:48;;;;;;;9.70;3.40;;;;;;;;;;110663;1272;22922;-78
2023/04/22 13:31:15;;;;;;;8.50;4.20;;;;;;;;;;110657;1273;22306;-75
2023/04/22 13:33:43;;;;;;;8.60;3.70;;;;;;;;;;111157;1257;22225;-78
2023/04/22 13:36:09;;;;;;;7.70;3.40;;;;;;;;;;110647;1272;22855;-77
2023/04/22 13:38:36;;;;;;;8.20;3.40;;;;;;;;;;110696;1275;22095;-76
2023/04/22 13:41:03;;;;;;;6.90;3.50;;;;;;;;;;110638;1274;23203;-78
2023/04/22 13:43:30;;;;;;;8.50;3.60;;;;;;;;;;111220;1254;22204;-76
2023/04/22 13:45:56;;;;;;;10.60;5.50;;;;;;;;;;110652;1273;22318;-75
2023/04/22 13:48:23;;;;;;;10.70;5.90;;;;;;;;;;110827;1273;22088;-76
2023/04/22 13:50:50;;;;;;;9.40;4.80;;;;;;;;;;110785;1273;22116;-77
2023/04/22 13:53:17;;;;;;;7.40;2.90;;;;;;;;;;110730;1256;22211;-76
2023/04/22 13:55:43;;;;;;;10.90;5.40;;;;;;;;;;110594;1275;22253;-76
2023/04/22 13:58:10;;;;;;;11.90;7.10;;;;;;;;;;110662;1275;22085;-76
2023/04/22 14:00:37;;;;;;;12.50;6.50;;;;;;;;;;110623;1275;22107;-75
2023/04/22 14:03:03;;;;;;;9.60;4.20;;;;;;;;;;110737;1257;22800;-75
2023/04/22 14:05:30;;;;;;;10.40;4.70;;;;;;;;;;110799;1273;22326;-77
2023/04/22 14:07:58;;;;;;;12.90;5.80;;;;;;;;;;110670;1263;22155;-78
2023/04/22 14:10:24;;;;;;;8.40;3.60;;;;;;;;;;110679;1273;22857;-77
2023/04/22 14:12:51;;;;;;;12.10;5.60;;;;;;;;;;110650;1254;22032;-76
2023/04/22 14:15:18;;;;;;;11.90;5.60;;;;;;;;;;110661;1275;22664;-76
2023/04/22 14:17:48;;;;;;;12.10;5.50;;;;;;;;;;110617;1272;22104;-78
2023/04/22 14:20:14;;;;;;;11.70;4.90;;;;;;;;;;110519;1275;22115;-78
2023/04/22 14:22:41;;;;;;;9.80;3.70;;;;;;;;;;110652;1274;22392;-77
2023/04/22 14:25:08;;;;;;;11.20;4.70;;;;;;;;;;110520;1259;22144;-77
2023/04/22 14:27:34;;;;;;;12.50;6.20;;;;;;;;;;110667;1273;22985;-77
2023/04/22 14:30:03;;;;;;;12.60;5.60;;;;;;;;;;110775;1273;22107;-78
2023/04/22 14:32:29;;;;;;;11.40;5.30;;;;;;;;;;110790;1273;22284;-78
2023/04/22 14:34:56;;;;;;;26.00;16.50;;;;;;;;;;110322;1260;22902;-75
2023/04/22 14:37:23;;;;;;;29.20;22.60;;;;;;;;;;110649;1275;22110;-76
2023/04/22 14:39:49;;;;;;;24.30;17.60;;;;;;;;;;110636;1275;22105;-75
2023/04/22 14:42:18;;;;;;;22.50;15.80;;;;;;;;;;110627;1276;22119;-76
2023/04/22 14:44:45;;;;;;;13.40;7.50;;;;;;;;;;110913;1256;22291;-76
2023/04/22 14:47:11;;;;;;;60.00;36.30;;;;;;;;;;110752;1273;22072;-75
2023/04/22 14:49:38;;;;;;;37.50;23.50;;;;;;;;;;110766;1273;22281;-74
2023/04/22 14:52:05;;;;;;;16.90;10.20;;;;;;;;;;110679;1273;22137;-76
2023/04/22 14:54:32;;;;;;;13.80;6.90;;;;;;;;;;110701;1256;22310;-76
2023/04/22 14:56:59;;;;;;;77.40;50.20;;;;;;;;;;110474;1274;22117;-76
2023/04/22 14:59:26;;;;;;;15.40;9.10;;;;;;;;;;110487;1275;22788;-77
2023/04/22 15:01:53;;;;;;;9.40;4.50;;;;;;;;;;110666;1275;22289;-77
2023/04/22 15:04:20;;;;;;;7.90;4.30;;;;;;;;;;110796;1257;22856;-78
2023/04/22 15:06:46;;;;;;;9.40;4.10;;;;;;;;;;110686;1273;22117;-74
2023/04/22 15:09:13;;;;;;;9.20;4.40;;;;;;;;;;110778;1273;22860;-75
2023/04/22 15:11:40;;;;;;;11.20;4.20;;;;;;;;;;110780;1273;22284;-78
2023/04/22 15:14:06;;;;;;;8.20;4.00;;;;;;;;;;110857;1251;22223;-77
2023/04/22 15:16:33;;;;;;;10.80;4.70;;;;;;;;;;110644;1274;22279;-76